sensor_id;sensor_type;location;lat;lon;timestamp;pressure;altitude;pressure_sealevel;temperature;humidity
48216;BME280;34005;48.844;10.098;2023-02-13T00:01:15;98564.75;;;4.90;76.94
48216;BME280;34005;48.844;10.098;2023-02-13T00:03:43;98571.66;;;4.89;77.21
48216;BME280;34005;48.844;10.098;2023-02-13T00:06:12;98562.44;;;4.85;76.67
48216;BME280;34005;48.844;10.098;2023-02-13T00:08:40;98561.84;;;4.82;76.58
48216;BME280;34005;48.844;10.098;2023-02-13T00:11:09;98556.00;;;4.78;76.79
48216;BME280;34005;48.844;10.098;2023-02-13T00:13:39;98565.44;;;4.79;76.97
48216;BME280;34005;48.844;10.098;2023-02-13T00:16:20;98563.69;;;4.80;77.60
48216;BME280;34005;48.844;10.098;2023-02-13T00:19:05;98562.84;;;4.79;77.04
48216;BME280;34005;48.844;10.098;2023-02-13T00:21:44;98567.38;;;4.75;77.18
48216;BME280;34005;48.844;10.098;2023-02-13T00:24:25;98569.22;;;4.73;76.90
48216;BME280;34005;48.844;10.098;2023-02-13T00:27:04;98563.41;;;4.70;76.45
48216;BME280;34005;48.844;10.098;2023-02-13T00:29:58;98568.25;;;4.62;75.94
48216;BME280;34005;48.844;10.098;2023-02-13T00:32:49;98567.31;;;4.63;77.34
48216;BME280;34005;48.844;10.098;2023-02-13T00:35:28;98563.38;;;4.57;76.15
48216;BME280;34005;48.844;10.098;2023-02-13T00:38:03;98574.91;;;4.51;76.23
48216;BME280;34005;48.844;10.098;2023-02-13T00:40:47;98568.81;;;4.52;76.26
48216;BME280;34005;48.844;10.098;2023-02-13T00:43:36;98569.75;;;4.51;76.50
48216;BME280;34005;48.844;10.098;2023-02-13T00:46:11;98572.25;;;4.53;76.02
48216;BME280;34005;48.844;10.098;2023-02-13T00:48:48;98575.66;;;4.53;76.63
48216;BME280;34005;48.844;10.098;2023-02-13T00:51:18;98573.28;;;4.50;76.36
48216;BME280;34005;48.844;10.098;2023-02-13T00:54:01;98574.09;;;4.51;76.42
48216;BME280;34005;48.844;10.098;2023-02-13T00:57:11;98569.00;;;4.49;76.75
48216;BME280;34005;48.844;10.098;2023-02-13T00:59:50;98571.69;;;4.48;76.31
48216;BME280;34005;48.844;10.098;2023-02-13T01:02:35;98570.03;;;4.47;76.64
48216;BME280;34005;48.844;10.098;2023-02-13T01:05:08;98573.53;;;4.46;76.21
48216;BME280;34005;48.844;10.098;2023-02-13T01:07:45;98563.47;;;4.41;75.99
48216;BME280;34005;48.844;10.098;2023-02-13T01:10:19;98561.00;;;4.40;76.54
48216;BME280;34005;48.844;10.098;2023-02-13T01:12:53;98557.69;;;4.38;77.17
48216;BME280;34005;48.844;10.098;2023-02-13T01:15:28;98561.09;;;4.38;77.29
48216;BME280;34005;48.844;10.098;2023-02-13T01:18:01;98558.50;;;4.38;77.65
48216;BME280;34005;48.844;10.098;2023-02-13T01:20:34;98564.50;;;4.39;76.88
48216;BME280;34005;48.844;10.098;2023-02-13T01:23:04;98559.34;;;4.39;76.90
48216;BME280;34005;48.844;10.098;2023-02-13T01:25:43;98559.25;;;4.40;78.11
48216;BME280;34005;48.844;10.098;2023-02-13T01:28:25;98565.16;;;4.42;77.64
48216;BME280;34005;48.844;10.098;2023-02-13T01:31:06;98561.09;;;4.38;77.27
48216;BME280;34005;48.844;10.098;2023-02-13T01:33:54;98558.50;;;4.38;76.79
48216;BME280;34005;48.844;10.098;2023-02-13T01:36:38;98557.56;;;4.39;76.85
48216;BME280;34005;48.844;10.098;2023-02-13T01:39:12;98549.75;;;4.41;77.29
48216;BME280;34005;48.844;10.098;2023-02-13T01:41:45;98553.78;;;4.45;78.31
48216;BME280;34005;48.844;10.098;2023-02-13T01:44:49;98549.44;;;4.45;77.49
48216;BME280;34005;48.844;10.098;2023-02-13T01:47:26;98534.16;;;4.42;76.66
48216;BME280;34005;48.844;10.098;2023-02-13T01:50:18;98538.50;;;4.42;76.39
48216;BME280;34005;48.844;10.098;2023-02-13T01:53:00;98538.38;;;4.43;75.84
48216;BME280;34005;48.844;10.098;2023-02-13T01:55:55;98529.81;;;4.43;76.60
48216;BME280;34005;48.844;10.098;2023-02-13T01:58:36;98525.81;;;4.37;75.68
48216;BME280;34005;48.844;10.098;2023-02-13T02:01:11;98534.72;;;4.33;75.66
48216;BME280;34005;48.844;10.098;2023-02-13T02:03:55;98528.09;;;4.29;75.81
48216;BME280;34005;48.844;10.098;2023-02-13T02:06:35;98526.69;;;4.23;75.80
48216;BME280;34005;48.844;10.098;2023-02-13T02:09:15;98534.63;;;4.20;76.62
48216;BME280;34005;48.844;10.098;2023-02-13T02:12:04;98525.50;;;4.15;75.83
48216;BME280;34005;48.844;10.098;2023-02-13T02:14:40;98533.53;;;4.10;75.99
48216;BME280;34005;48.844;10.098;2023-02-13T02:17:11;98525.88;;;4.08;76.10
48216;BME280;34005;48.844;10.098;2023-02-13T02:20:06;98528.56;;;4.07;76.77
48216;BME280;34005;48.844;10.098;2023-02-13T02:29:36;98522.38;;;4.09;76.24
48216;BME280;34005;48.844;10.098;2023-02-13T02:32:41;98522.56;;;4.06;76.00
48216;BME280;34005;48.844;10.098;2023-02-13T02:35:25;98522.56;;;4.06;76.62
48216;BME280;34005;48.844;10.098;2023-02-13T02:38:13;98518.31;;;4.05;76.63
48216;BME280;34005;48.844;10.098;2023-02-13T02:41:07;98521.00;;;4.04;76.41
48216;BME280;34005;48.844;10.098;2023-02-13T02:44:08;98511.59;;;4.03;78.33
48216;BME280;34005;48.844;10.098;2023-02-13T02:46:50;98510.66;;;4.04;78.15
48216;BME280;34005;48.844;10.098;2023-02-13T02:49:40;98515.09;;;4.02;77.92
48216;BME280;34005;48.844;10.098;2023-02-13T02:52:38;98510.66;;;4.04;78.51
48216;BME280;34005;48.844;10.098;2023-02-13T02:55:17;98512.63;;;4.00;78.31
48216;BME280;34005;48.844;10.098;2023-02-13T02:57:53;98511.69;;;4.01;78.43
48216;BME280;34005;48.844;10.098;2023-02-13T03:00:41;98514.56;;;3.97;76.80
48216;BME280;34005;48.844;10.098;2023-02-13T03:03:28;98509.84;;;3.89;77.09
48216;BME280;34005;48.844;10.098;2023-02-13T03:06:18;98513.44;;;3.86;77.41
48216;BME280;34005;48.844;10.098;2023-02-13T03:08:52;98502.47;;;3.83;77.20
48216;BME280;34005;48.844;10.098;2023-02-13T03:11:34;98508.09;;;3.75;76.39
48216;BME280;34005;48.844;10.098;2023-02-13T03:14:20;98513.34;;;3.74;76.94
48216;BME280;34005;48.844;10.098;2023-02-13T03:16:48;98512.72;;;3.70;77.24
48216;BME280;34005;48.844;10.098;2023-02-13T03:19:42;98511.03;;;3.69;77.08
48216;BME280;34005;48.844;10.098;2023-02-13T03:22:39;98520.72;;;3.65;76.76
48216;BME280;34005;48.844;10.098;2023-02-13T03:25:11;98518.31;;;3.62;77.24
48216;BME280;34005;48.844;10.098;2023-02-13T03:27:49;98527.00;;;3.61;76.76
48216;BME280;34005;48.844;10.098;2023-02-13T03:30:57;98529.66;;;3.60;77.42
48216;BME280;34005;48.844;10.098;2023-02-13T03:33:43;98532.31;;;3.58;77.30
48216;BME280;34005;48.844;10.098;2023-02-13T03:36:23;98541.25;;;3.53;77.61
48216;BME280;34005;48.844;10.098;2023-02-13T03:39:18;98536.44;;;3.46;77.88
48216;BME280;34005;48.844;10.098;2023-02-13T03:41:51;98547.88;;;3.42;77.36
48216;BME280;34005;48.844;10.098;2023-02-13T03:44:26;98542.97;;;3.38;77.04
48216;BME280;34005;48.844;10.098;2023-02-13T03:46:58;98536.53;;;3.30;76.29
48216;BME280;34005;48.844;10.098;2023-02-13T03:49:29;98539.44;;;3.24;76.26
48216;BME280;34005;48.844;10.098;2023-02-13T03:52:18;98546.69;;;3.18;76.53
48216;BME280;34005;48.844;10.098;2023-02-13T03:54:51;98542.72;;;3.12;76.73
48216;BME280;34005;48.844;10.098;2023-02-13T03:57:39;98547.38;;;3.05;76.69
48216;BME280;34005;48.844;10.098;2023-02-13T04:00:27;98549.00;;;2.92;75.96
48216;BME280;34005;48.844;10.098;2023-02-13T04:03:00;98549.50;;;2.83;76.78
48216;BME280;34005;48.844;10.098;2023-02-13T04:05:30;98551.75;;;2.73;76.68
48216;BME280;34005;48.844;10.098;2023-02-13T04:07:58;98558.66;;;2.73;77.67
48216;BME280;34005;48.844;10.098;2023-02-13T04:10:31;98560.22;;;2.75;77.60
48216;BME280;34005;48.844;10.098;2023-02-13T04:13:07;98560.34;;;2.74;76.78
48216;BME280;34005;48.844;10.098;2023-02-13T04:15:40;98563.81;;;2.73;77.35
48216;BME280;34005;48.844;10.098;2023-02-13T04:18:13;98565.56;;;2.72;78.03
48216;BME280;34005;48.844;10.098;2023-02-13T04:20:42;98574.13;;;2.73;77.50
48216;BME280;34005;48.844;10.098;2023-02-13T04:23:11;98572.72;;;2.67;76.64
48216;BME280;34005;48.844;10.098;2023-02-13T04:25:42;98579.09;;;2.60;76.69
48216;BME280;34005;48.844;10.098;2023-02-13T04:28:10;98579.28;;;2.57;76.92
48216;BME280;34005;48.844;10.098;2023-02-13T04:30:38;98571.75;;;2.54;76.98
48216;BME280;34005;48.844;10.098;2023-02-13T04:33:08;98574.47;;;2.51;76.95
48216;BME280;34005;48.844;10.098;2023-02-13T04:35:35;98576.47;;;2.45;76.99
48216;BME280;34005;48.844;10.098;2023-02-13T04:38:03;98577.47;;;2.43;77.63
48216;BME280;34005;48.844;10.098;2023-02-13T04:40:31;98574.13;;;2.41;77.52
48216;BME280;34005;48.844;10.098;2023-02-13T04:43:00;98575.22;;;2.37;77.54
48216;BME280;34005;48.844;10.098;2023-02-13T04:45:27;98573.63;;;2.34;77.55
48216;BME280;34005;48.844;10.098;2023-02-13T04:47:56;98571.19;;;2.31;77.78
48216;BME280;34005;48.844;10.098;2023-02-13T04:50:24;98574.59;;;2.32;77.78
48216;BME280;34005;48.844;10.098;2023-02-13T04:52:53;98566.81;;;2.33;78.53
48216;BME280;34005;48.844;10.098;2023-02-13T04:55:21;98571.81;;;2.36;78.38
48216;BME280;34005;48.844;10.098;2023-02-13T04:57:50;98571.81;;;2.36;77.44
48216;BME280;34005;48.844;10.098;2023-02-13T05:00:20;98571.94;;;2.33;77.82
48216;BME280;34005;48.844;10.098;2023-02-13T05:02:48;98572.78;;;2.34;77.96
48216;BME280;34005;48.844;10.098;2023-02-13T05:05:16;98570.88;;;2.37;77.64
48216;BME280;34005;48.844;10.098;2023-02-13T05:07:44;98571.63;;;2.39;77.56
48216;BME280;34005;48.844;10.098;2023-02-13T05:10:12;98580.09;;;2.41;77.45
48216;BME280;34005;48.844;10.098;2023-02-13T05:12:39;98570.69;;;2.40;76.96
48216;BME280;34005;48.844;10.098;2023-02-13T05:15:08;98569.31;;;2.35;77.23
48216;BME280;34005;48.844;10.098;2023-02-13T05:17:37;98581.19;;;2.37;77.54
48216;BME280;34005;48.844;10.098;2023-02-13T05:20:06;98580.09;;;2.41;77.57
48216;BME280;34005;48.844;10.098;2023-02-13T05:22:33;98575.84;;;2.40;77.41
48216;BME280;34005;48.844;10.098;2023-02-13T05:25:18;98577.69;;;2.38;77.45
48216;BME280;34005;48.844;10.098;2023-02-13T05:27:46;98580.94;;;2.42;77.85
48216;BME280;34005;48.844;10.098;2023-02-13T05:30:14;98581.75;;;2.42;77.79
48216;BME280;34005;48.844;10.098;2023-02-13T05:32:43;98586.91;;;2.42;78.04
48216;BME280;34005;48.844;10.098;2023-02-13T05:35:11;98590.25;;;2.44;77.60
48216;BME280;34005;48.844;10.098;2023-02-13T05:37:38;98587.84;;;2.41;77.29
48216;BME280;34005;48.844;10.098;2023-02-13T05:40:07;98587.97;;;2.38;77.48
48216;BME280;34005;48.844;10.098;2023-02-13T05:42:35;98582.09;;;2.36;77.27
48216;BME280;34005;48.844;10.098;2023-02-13T05:45:03;98579.44;;;2.38;77.80
48216;BME280;34005;48.844;10.098;2023-02-13T05:47:31;98577.78;;;2.37;77.27
48216;BME280;34005;48.844;10.098;2023-02-13T05:50:00;98575.28;;;2.35;77.92
48216;BME280;34005;48.844;10.098;2023-02-13T05:52:27;98577.78;;;2.37;78.24
48216;BME280;34005;48.844;10.098;2023-02-13T05:54:55;98572.63;;;2.37;77.38
48216;BME280;34005;48.844;10.098;2023-02-13T05:57:22;98575.22;;;2.37;77.17
48216;BME280;34005;48.844;10.098;2023-02-13T05:59:50;98576.09;;;2.36;76.83
48216;BME280;34005;48.844;10.098;2023-02-13T06:02:17;98578.03;;;2.32;76.83
48216;BME280;34005;48.844;10.098;2023-02-13T06:04:45;98575.44;;;2.32;77.05
48216;BME280;34005;48.844;10.098;2023-02-13T06:07:14;98570.44;;;2.29;77.00
48216;BME280;34005;48.844;10.098;2023-02-13T06:09:41;98569.88;;;2.24;77.20
48216;BME280;34005;48.844;10.098;2023-02-13T06:12:09;98575.84;;;2.24;77.81
48216;BME280;34005;48.844;10.098;2023-02-13T06:14:36;98577.41;;;2.27;77.78
48216;BME280;34005;48.844;10.098;2023-02-13T06:17:04;98584.38;;;2.25;76.79
48216;BME280;34005;48.844;10.098;2023-02-13T06:19:32;98582.91;;;2.21;76.76
48216;BME280;34005;48.844;10.098;2023-02-13T06:21:59;98584.75;;;2.19;76.73
48216;BME280;34005;48.844;10.098;2023-02-13T06:24:28;98584.75;;;2.19;76.82
48216;BME280;34005;48.844;10.098;2023-02-13T06:26:56;98587.38;;;2.17;76.36
48216;BME280;34005;48.844;10.098;2023-02-13T06:29:23;98590.03;;;2.16;76.42
48216;BME280;34005;48.844;10.098;2023-02-13T06:31:51;98596.94;;;2.15;76.26
48216;BME280;34005;48.844;10.098;2023-02-13T06:34:19;98598.81;;;2.12;76.54
48216;BME280;34005;48.844;10.098;2023-02-13T06:36:46;98604.28;;;2.05;76.41
48216;BME280;34005;48.844;10.098;2023-02-13T06:39:14;98605.97;;;2.06;76.57
48216;BME280;34005;48.844;10.098;2023-02-13T06:41:43;98611.09;;;2.06;76.28
48216;BME280;34005;48.844;10.098;2023-02-13T06:44:11;98613.50;;;2.10;76.21
48216;BME280;34005;48.844;10.098;2023-02-13T06:46:39;98615.19;;;2.11;76.31
48216;BME280;34005;48.844;10.098;2023-02-13T06:49:08;98620.16;;;2.14;76.42
48216;BME280;34005;48.844;10.098;2023-02-13T06:51:35;98620.03;;;2.17;76.22
48216;BME280;34005;48.844;10.098;2023-02-13T06:54:03;98626.75;;;2.19;76.58
48216;BME280;34005;48.844;10.098;2023-02-13T06:56:30;98629.09;;;2.24;76.23
48216;BME280;34005;48.844;10.098;2023-02-13T06:59:00;98622.81;;;2.30;76.79
48216;BME280;34005;48.844;10.098;2023-02-13T07:01:28;98629.44;;;2.34;76.49
48216;BME280;34005;48.844;10.098;2023-02-13T07:03:55;98628.59;;;2.33;76.33
48216;BME280;34005;48.844;10.098;2023-02-13T07:06:23;98633.63;;;2.36;76.70
48216;BME280;34005;48.844;10.098;2023-02-13T07:08:50;98631.88;;;2.37;77.10
48216;BME280;34005;48.844;10.098;2023-02-13T07:11:22;98639.50;;;2.38;76.47
48216;BME280;34005;48.844;10.098;2023-02-13T07:13:50;98632.63;;;2.39;76.42
48216;BME280;34005;48.844;10.098;2023-02-13T07:16:19;98632.53;;;2.40;75.74
48216;BME280;34005;48.844;10.098;2023-02-13T07:18:47;98631.44;;;2.44;75.96
48216;BME280;34005;48.844;10.098;2023-02-13T07:21:15;98630.38;;;2.48;75.67
48216;BME280;34005;48.844;10.098;2023-02-13T07:23:43;98631.81;;;2.54;75.78
48216;BME280;34005;48.844;10.098;2023-02-13T07:26:10;98625.09;;;2.67;75.25
48216;BME280;34005;48.844;10.098;2023-02-13T07:28:38;98628.75;;;2.95;75.61
48216;BME280;34005;48.844;10.098;2023-02-13T07:31:05;98625.94;;;3.46;75.54
48216;BME280;34005;48.844;10.098;2023-02-13T07:33:35;98626.06;;;4.32;72.26
48216;BME280;34005;48.844;10.098;2023-02-13T07:36:03;98628.47;;;4.91;69.75
48216;BME280;34005;48.844;10.098;2023-02-13T07:38:32;98623.84;;;5.23;69.04
48216;BME280;34005;48.844;10.098;2023-02-13T07:41:01;98624.31;;;5.83;67.42
48216;BME280;34005;48.844;10.098;2023-02-13T07:43:29;98626.72;;;5.98;65.70
48216;BME280;34005;48.844;10.098;2023-02-13T07:45:58;98630.72;;;5.90;66.24
48216;BME280;34005;48.844;10.098;2023-02-13T07:48:26;98626.13;;;5.95;65.02
48216;BME280;34005;48.844;10.098;2023-02-13T07:50:59;98632.34;;;5.65;63.99
48216;BME280;34005;48.844;10.098;2023-02-13T07:53:26;98632.34;;;5.25;66.05
48216;BME280;34005;48.844;10.098;2023-02-13T07:55:54;98633.50;;;4.80;67.78
48216;BME280;34005;48.844;10.098;2023-02-13T07:58:22;98632.13;;;4.45;69.00
48216;BME280;34005;48.844;10.098;2023-02-13T08:00:50;98636.00;;;4.24;69.35
48216;BME280;34005;48.844;10.098;2023-02-13T08:03:18;98643.94;;;4.06;71.17
48216;BME280;34005;48.844;10.098;2023-02-13T08:05:46;98644.56;;;3.96;70.61
48216;BME280;34005;48.844;10.098;2023-02-13T08:08:16;98640.06;;;3.85;70.97
48216;BME280;34005;48.844;10.098;2023-02-13T08:10:43;98639.31;;;3.83;71.63
48216;BME280;34005;48.844;10.098;2023-02-13T08:13:33;98638.44;;;3.82;71.88
48216;BME280;34005;48.844;10.098;2023-02-13T08:16:02;98632.31;;;3.85;71.69
48216;BME280;34005;48.844;10.098;2023-02-13T08:18:30;98628.59;;;3.89;71.20
48216;BME280;34005;48.844;10.098;2023-02-13T08:21:00;98643.75;;;3.95;71.83
48216;BME280;34005;48.844;10.098;2023-02-13T08:23:29;98646.50;;;4.06;71.21
48216;BME280;34005;48.844;10.098;2023-02-13T08:25:58;98637.50;;;4.13;70.90
48216;BME280;34005;48.844;10.098;2023-02-13T08:28:27;98629.94;;;4.25;70.43
48216;BME280;34005;48.844;10.098;2023-02-13T08:30:55;98629.91;;;4.39;70.18
48216;BME280;34005;48.844;10.098;2023-02-13T08:33:22;98626.41;;;4.54;69.91
48216;BME280;34005;48.844;10.098;2023-02-13T08:35:50;98624.25;;;4.75;69.71
48216;BME280;34005;48.844;10.098;2023-02-13T08:38:17;98628.91;;;4.98;69.11
48216;BME280;34005;48.844;10.098;2023-02-13T08:40:47;98623.22;;;5.20;70.19
48216;BME280;34005;48.844;10.098;2023-02-13T08:43:15;98631.16;;;5.44;68.56
48216;BME280;34005;48.844;10.098;2023-02-13T08:45:42;98632.75;;;5.59;68.44
48216;BME280;34005;48.844;10.098;2023-02-13T08:56:17;98629.41;;;6.10;66.40
48216;BME280;34005;48.844;10.098;2023-02-13T08:58:47;98632.53;;;6.28;67.29
48216;BME280;34005;48.844;10.098;2023-02-13T09:01:15;98639.88;;;6.47;66.92
48216;BME280;34005;48.844;10.098;2023-02-13T09:03:42;98636.34;;;6.60;66.19
48216;BME280;34005;48.844;10.098;2023-02-13T09:06:10;98631.63;;;6.78;65.62
48216;BME280;34005;48.844;10.098;2023-02-13T09:08:37;98631.59;;;6.91;64.93
48216;BME280;34005;48.844;10.098;2023-02-13T09:11:05;98636.84;;;7.03;64.12
48216;BME280;34005;48.844;10.098;2023-02-13T09:13:35;98640.47;;;7.13;64.27
48216;BME280;34005;48.844;10.098;2023-02-13T09:16:04;98640.50;;;7.24;63.13
48216;BME280;34005;48.844;10.098;2023-02-13T09:18:33;98633.69;;;7.34;61.90
48216;BME280;34005;48.844;10.098;2023-02-13T09:21:03;98638.25;;;7.43;62.55
48216;BME280;34005;48.844;10.098;2023-02-13T09:23:32;98640.88;;;7.55;61.86
48216;BME280;34005;48.844;10.098;2023-02-13T09:26:00;98635.00;;;7.64;61.88
48216;BME280;34005;48.844;10.098;2023-02-13T09:28:29;98640.34;;;7.74;62.07
48216;BME280;34005;48.844;10.098;2023-02-13T09:30:59;98646.63;;;7.82;61.40
48216;BME280;34005;48.844;10.098;2023-02-13T09:33:27;98645.59;;;7.96;60.68
48216;BME280;34005;48.844;10.098;2023-02-13T09:35:54;98635.78;;;8.00;60.26
48216;BME280;34005;48.844;10.098;2023-02-13T09:38:22;98641.97;;;8.10;61.62
48216;BME280;34005;48.844;10.098;2023-02-13T09:40:53;98648.50;;;8.27;61.35
48216;BME280;34005;48.844;10.098;2023-02-13T09:43:27;98640.81;;;8.37;60.71
48216;BME280;34005;48.844;10.098;2023-02-13T09:45:59;98647.69;;;8.49;61.33
48216;BME280;34005;48.844;10.098;2023-02-13T09:48:30;98641.69;;;8.60;59.61
48216;BME280;34005;48.844;10.098;2023-02-13T09:50:58;98644.03;;;8.63;59.82
48216;BME280;34005;48.844;10.098;2023-02-13T09:53:28;98641.31;;;8.76;60.12
48216;BME280;34005;48.844;10.098;2023-02-13T09:56:04;98636.06;;;8.87;59.70
48216;BME280;34005;48.844;10.098;2023-02-13T09:58:39;98632.63;;;8.98;57.51
48216;BME280;34005;48.844;10.098;2023-02-13T10:01:19;98641.47;;;9.06;58.39
48216;BME280;34005;48.844;10.098;2023-02-13T10:04:06;98638.13;;;9.16;60.23
48216;BME280;34005;48.844;10.098;2023-02-13T10:06:42;98641.88;;;9.34;60.07
48216;BME280;34005;48.844;10.098;2023-02-13T10:09:21;98645.66;;;9.41;57.10
48216;BME280;34005;48.844;10.098;2023-02-13T10:12:18;98645.03;;;9.49;56.65
48216;BME280;34005;48.844;10.098;2023-02-13T10:14:53;98648.84;;;9.66;57.06
48216;BME280;34005;48.844;10.098;2023-02-13T10:17:30;98648.94;;;9.76;57.78
48216;BME280;34005;48.844;10.098;2023-02-13T10:20:02;98645.69;;;9.83;56.12
48216;BME280;34005;48.844;10.098;2023-02-13T10:22:36;98647.78;;;9.89;55.29
48216;BME280;34005;48.844;10.098;2023-02-13T10:25:07;98647.41;;;9.94;56.50
48216;BME280;34005;48.844;10.098;2023-02-13T10:27:42;98658.44;;;9.98;56.92
48216;BME280;34005;48.844;10.098;2023-02-13T10:30:14;98654.34;;;10.05;56.09
48216;BME280;34005;48.844;10.098;2023-02-13T10:32:53;98657.66;;;10.07;55.40
48216;BME280;34005;48.844;10.098;2023-02-13T10:35:37;98654.09;;;10.08;55.73
48216;BME280;34005;48.844;10.098;2023-02-13T10:38:14;98656.31;;;10.13;54.22
48216;BME280;34005;48.844;10.098;2023-02-13T10:40:53;98650.06;;;10.25;55.32
48216;BME280;34005;48.844;10.098;2023-02-13T10:43:26;98652.56;;;10.26;54.69
48216;BME280;34005;48.844;10.098;2023-02-13T10:46:05;98644.28;;;10.21;54.91
48216;BME280;34005;48.844;10.098;2023-02-13T10:51:29;98639.88;;;10.43;56.78
48216;BME280;34005;48.844;10.098;2023-02-13T10:54:20;98638.66;;;10.47;54.97
48216;BME280;34005;48.844;10.098;2023-02-13T10:56:56;98623.47;;;10.52;54.43
48216;BME280;34005;48.844;10.098;2023-02-13T10:59:46;98620.06;;;10.61;53.51
48216;BME280;34005;48.844;10.098;2023-02-13T11:02:22;98612.63;;;10.66;52.25
48216;BME280;34005;48.844;10.098;2023-02-13T11:04:57;98613.50;;;10.77;54.44
48216;BME280;34005;48.844;10.098;2023-02-13T11:07:27;98608.28;;;10.86;54.38
48216;BME280;34005;48.844;10.098;2023-02-13T11:10:00;98605.44;;;10.99;53.36
48216;BME280;34005;48.844;10.098;2023-02-13T11:12:31;98609.19;;;11.06;51.89
48216;BME280;34005;48.844;10.098;2023-02-13T11:15:00;98599.84;;;11.13;51.50
48216;BME280;34005;48.844;10.098;2023-02-13T11:17:30;98601.47;;;11.14;50.96
48216;BME280;34005;48.844;10.098;2023-02-13T11:20:02;98600.53;;;11.16;50.36
48216;BME280;34005;48.844;10.098;2023-02-13T11:22:32;98608.91;;;11.29;51.09
48216;BME280;34005;48.844;10.098;2023-02-13T11:25:05;98599.41;;;11.47;51.54
48216;BME280;34005;48.844;10.098;2023-02-13T11:27:35;98592.41;;;11.58;52.17
48216;BME280;34005;48.844;10.098;2023-02-13T11:30:06;98592.53;;;11.66;52.43
48216;BME280;34005;48.844;10.098;2023-02-13T11:32:37;98593.50;;;11.74;50.49
48216;BME280;34005;48.844;10.098;2023-02-13T11:35:28;98595.94;;;11.86;49.11
48216;BME280;34005;48.844;10.098;2023-02-13T11:38:23;98599.00;;;11.91;50.42
48216;BME280;34005;48.844;10.098;2023-02-13T11:41:03;98588.53;;;12.01;50.16
48216;BME280;34005;48.844;10.098;2023-02-13T11:43:34;98595.03;;;12.24;51.66
48216;BME280;34005;48.844;10.098;2023-02-13T11:46:05;98595.81;;;12.44;49.15
48216;BME280;34005;48.844;10.098;2023-02-13T11:48:34;98592.88;;;12.47;48.77
48216;BME280;34005;48.844;10.098;2023-02-13T11:51:03;98586.41;;;12.51;47.74
48216;BME280;34005;48.844;10.098;2023-02-13T11:53:35;98587.75;;;12.55;48.60
48216;BME280;34005;48.844;10.098;2023-02-13T11:56:07;98586.06;;;12.64;50.36
48216;BME280;34005;48.844;10.098;2023-02-13T11:58:36;98583.47;;;12.82;50.59
48216;BME280;34005;48.844;10.098;2023-02-13T12:01:24;98579.06;;;13.01;49.20
48216;BME280;34005;48.844;10.098;2023-02-13T12:04:06;98580.38;;;13.14;47.24
48216;BME280;34005;48.844;10.098;2023-02-13T12:06:57;98577.53;;;13.26;46.58
48216;BME280;34005;48.844;10.098;2023-02-13T12:09:26;98583.16;;;13.31;46.50
48216;BME280;34005;48.844;10.098;2023-02-13T12:11:56;98586.22;;;13.44;47.10
48216;BME280;34005;48.844;10.098;2023-02-13T12:14:28;98575.09;;;13.68;46.48
48216;BME280;34005;48.844;10.098;2023-02-13T12:16:59;98579.47;;;13.86;45.92
48216;BME280;34005;48.844;10.098;2023-02-13T12:19:34;98580.31;;;13.86;44.32
48216;BME280;34005;48.844;10.098;2023-02-13T12:22:28;98578.81;;;13.84;45.88
48216;BME280;34005;48.844;10.098;2023-02-13T12:28:12;98572.50;;;13.50;45.09
48216;BME280;34005;48.844;10.098;2023-02-13T12:31:03;98575.56;;;13.28;44.69
48216;BME280;34005;48.844;10.098;2023-02-13T12:33:56;98571.66;;;13.14;46.75
48216;BME280;34005;48.844;10.098;2023-02-13T12:36:35;98575.72;;;12.90;45.95
48216;BME280;34005;48.844;10.098;2023-02-13T12:39:17;98569.91;;;12.69;46.36
48216;BME280;34005;48.844;10.098;2023-02-13T12:42:00;98573.31;;;12.51;47.32
48216;BME280;34005;48.844;10.098;2023-02-13T12:44:50;98571.31;;;12.35;47.63
48216;BME280;34005;48.844;10.098;2023-02-13T12:47:28;98580.19;;;12.25;47.38
48216;BME280;34005;48.844;10.098;2023-02-13T12:50:18;98579.38;;;12.14;48.15
48216;BME280;34005;48.844;10.098;2023-02-13T12:53:14;98579.13;;;11.98;47.47
48216;BME280;34005;48.844;10.098;2023-02-13T12:56:14;98578.06;;;11.71;47.78
48216;BME280;34005;48.844;10.098;2023-02-13T12:58:59;98581.13;;;11.47;47.77
48216;BME280;34005;48.844;10.098;2023-02-13T13:01:53;98573.19;;;11.20;47.97
48216;BME280;34005;48.844;10.098;2023-02-13T13:04:33;98575.91;;;10.99;48.82
48216;BME280;34005;48.844;10.098;2023-02-13T13:07:17;98580.16;;;10.90;52.01
48216;BME280;34005;48.844;10.098;2023-02-13T13:10:02;98579.28;;;10.80;49.39
48216;BME280;34005;48.844;10.098;2023-02-13T13:12:45;98580.75;;;10.53;49.69
48216;BME280;34005;48.844;10.098;2023-02-13T13:15:24;98579.44;;;10.38;50.50
48216;BME280;34005;48.844;10.098;2023-02-13T13:18:02;98575.44;;;10.34;50.40
48216;BME280;34005;48.844;10.098;2023-02-13T13:20:45;98583.56;;;10.30;51.24
48216;BME280;34005;48.844;10.098;2023-02-13T13:23:19;98579.44;;;10.38;51.83
48216;BME280;34005;48.844;10.098;2023-02-13T13:25:54;98584.44;;;10.41;52.28
48216;BME280;34005;48.844;10.098;2023-02-13T13:28:28;98583.56;;;10.30;50.35
48216;BME280;34005;48.844;10.098;2023-02-13T13:30:59;98580.81;;;10.11;51.08
48216;BME280;34005;48.844;10.098;2023-02-13T13:33:28;98577.16;;;9.93;51.41
48216;BME280;34005;48.844;10.098;2023-02-13T13:36:01;98578.88;;;9.82;51.46
48216;BME280;34005;48.844;10.098;2023-02-13T13:38:41;98587.59;;;9.72;51.89
48216;BME280;34005;48.844;10.098;2023-02-13T13:41:14;98580.78;;;9.59;51.71
48216;BME280;34005;48.844;10.098;2023-02-13T13:44:00;98588.66;;;9.48;52.15
48216;BME280;34005;48.844;10.098;2023-02-13T13:46:34;98585.78;;;9.30;52.03
48216;BME280;34005;48.844;10.098;2023-02-13T13:49:13;98577.09;;;9.08;52.73
48216;BME280;34005;48.844;10.098;2023-02-13T13:51:44;98578.59;;;8.90;53.36
48216;BME280;34005;48.844;10.098;2023-02-13T13:54:23;98588.31;;;8.77;54.31
48216;BME280;34005;48.844;10.098;2023-02-13T13:57:05;98585.25;;;8.60;54.18
48216;BME280;34005;48.844;10.098;2023-02-13T13:59:57;98585.13;;;8.39;54.59